createdAt,value
2022-10-23T00:01:00.167Z,4.57
2022-10-23T00:02:02.584Z,4.72
2022-10-23T00:03:05.070Z,5.10
2022-10-23T00:04:35.911Z,4.90
2022-10-23T00:05:40.532Z,4.80
2022-10-23T00:06:43.298Z,4.57
2022-10-23T00:07:44.991Z,4.45
2022-10-23T00:08:47.663Z,4.90
2022-10-23T00:09:49.358Z,4.47
2022-10-23T00:10:51.032Z,4.68
2022-10-23T00:11:53.766Z,4.68
2022-10-23T00:12:55.501Z,4.60
2022-10-23T00:14:00.048Z,4.50
2022-10-23T00:15:01.837Z,4.45
2022-10-23T00:16:03.725Z,4.28
2022-10-23T00:17:05.516Z,4.35
2022-10-23T00:18:07.279Z,4.28
2022-10-23T00:19:09.043Z,4.15
2022-10-23T00:20:11.753Z,5.03
2022-10-23T00:21:15.234Z,4.45
2022-10-23T00:22:17.033Z,4.15
2022-10-23T00:23:18.741Z,4.68
2022-10-23T00:24:20.427Z,3.90
2022-10-23T00:25:22.169Z,4.72
2022-10-23T00:26:24.134Z,4.60
2022-10-23T00:27:25.912Z,4.90
2022-10-23T00:28:27.832Z,4.97
2022-10-23T00:29:29.593Z,5.15
2022-10-23T00:30:31.382Z,4.80
2022-10-23T00:31:33.407Z,4.57
2022-10-23T00:32:35.163Z,5.15
2022-10-23T00:33:37.048Z,4.75
2022-10-23T00:34:38.973Z,4.75
2022-10-23T00:35:41.941Z,4.03
2022-10-23T00:36:43.684Z,4.87
2022-10-23T00:37:45.418Z,4.88
2022-10-23T00:38:47.555Z,4.40
2022-10-23T00:39:49.253Z,4.65
2022-10-23T00:40:51.561Z,4.57
2022-10-23T00:41:54.580Z,4.70
2022-10-23T00:42:56.248Z,4.30
2022-10-23T00:44:06.654Z,4.53
2022-10-23T00:45:26.406Z,4.82
2022-10-23T00:46:28.848Z,4.03
2022-10-23T00:47:30.722Z,4.27
2022-10-23T00:48:32.451Z,4.90
2022-10-23T00:49:34.676Z,4.75
2022-10-23T00:50:36.711Z,4.57
2022-10-23T00:51:46.336Z,5.80
2022-10-23T00:52:50.580Z,5.00
2022-10-23T00:54:06.498Z,4.82
2022-10-23T00:55:21.435Z,4.10
2022-10-23T00:56:23.961Z,4.80
2022-10-23T00:57:25.944Z,4.63
2022-10-23T00:58:27.842Z,4.77
2022-10-23T00:59:31.007Z,5.00
2022-10-23T01:00:49.850Z,4.60
2022-10-23T01:01:52.176Z,4.68
2022-10-23T01:02:55.437Z,4.33
2022-10-23T01:03:57.657Z,4.27
2022-10-23T01:04:59.408Z,5.22
2022-10-23T01:06:18.890Z,4.75
2022-10-23T01:07:29.362Z,4.43
2022-10-23T01:08:44.051Z,4.65
2022-10-23T01:09:48.451Z,4.22
2022-10-23T01:10:57.657Z,4.20
2022-10-23T01:12:34.205Z,4.35
2022-10-23T01:13:48.120Z,4.28
2022-10-23T01:15:21.807Z,4.17
2022-10-23T01:16:40.067Z,5.03
2022-10-23T01:17:45.027Z,5.10
2022-10-23T01:18:58.626Z,5.07
2022-10-23T01:20:21.875Z,4.72
2022-10-23T01:22:08.961Z,4.82
2022-10-23T01:23:29.336Z,4.27
2022-10-23T01:24:54.308Z,5.03
2022-10-23T01:26:15.605Z,4.25
2022-10-23T01:27:25.312Z,5.07
2022-10-23T01:28:34.245Z,4.77
2022-10-23T01:29:46.110Z,4.72
2022-10-23T01:30:49.112Z,4.80
2022-10-23T01:31:54.243Z,4.95
2022-10-23T01:33:08.168Z,4.70
2022-10-23T01:34:16.152Z,5.10
2022-10-23T01:35:37.798Z,4.50
2022-10-23T01:36:43.228Z,4.60
2022-10-23T01:38:06.113Z,4.72
2022-10-23T01:39:14.653Z,4.35
2022-10-23T01:40:32.741Z,4.40
2022-10-23T01:41:38.199Z,6.47
2022-10-23T01:42:45.637Z,4.97
2022-10-23T01:44:00.242Z,5.10
2022-10-23T01:45:37.874Z,4.23
2022-10-23T01:46:41.063Z,4.93
2022-10-23T01:47:45.497Z,4.60
2022-10-23T01:48:52.664Z,5.20
2022-10-23T01:49:57.253Z,4.67
2022-10-23T01:51:06.070Z,4.57
2022-10-23T01:52:10.828Z,4.70
2022-10-23T01:53:12.591Z,4.40
2022-10-23T01:54:16.635Z,4.50
2022-10-23T01:55:18.578Z,4.38
2022-10-23T01:56:25.787Z,4.23
2022-10-23T01:57:31.509Z,4.67
2022-10-23T01:58:35.972Z,4.03
2022-10-23T01:59:43.089Z,4.40
2022-10-23T02:00:46.877Z,3.80
2022-10-23T02:01:50.982Z,4.35
2022-10-23T02:02:54.780Z,4.55
2022-10-23T02:05:24.680Z,4.20
2022-10-23T02:06:26.487Z,4.63
2022-10-23T02:07:28.422Z,4.03
2022-10-23T02:08:31.294Z,4.17
2022-10-23T02:09:33.655Z,4.57
2022-10-23T02:10:46.505Z,4.30
2022-10-23T02:12:07.017Z,3.97
2022-10-23T02:13:25.303Z,4.07
2022-10-23T02:14:34.121Z,4.43
2022-10-23T02:15:53.326Z,4.55
2022-10-23T02:17:04.763Z,4.18
2022-10-23T02:18:24.188Z,3.87
2022-10-23T02:19:35.209Z,4.63
2022-10-23T02:21:00.802Z,3.83
2022-10-23T02:22:21.719Z,4.18
2022-10-23T02:23:38.661Z,4.15
2022-10-23T02:24:54.170Z,4.93
2022-10-23T02:26:10.728Z,4.18
2022-10-23T02:27:18.625Z,4.30
2022-10-23T02:28:28.418Z,4.75
2022-10-23T02:29:34.745Z,5.47
2022-10-23T02:30:39.116Z,4.60
2022-10-23T02:31:40.926Z,4.43
2022-10-23T02:32:49.984Z,5.20
2022-10-23T02:33:51.889Z,4.85
2022-10-23T02:34:54.094Z,4.33
2022-10-23T02:35:56.052Z,4.80
2022-10-23T02:36:57.889Z,4.60
2022-10-23T02:38:01.102Z,4.80
2022-10-23T02:39:03.854Z,5.07
2022-10-23T02:40:06.691Z,5.32
2022-10-23T02:41:20.517Z,6.13
2022-10-23T02:42:46.518Z,5.37
2022-10-23T02:44:38.468Z,5.27
2022-10-23T02:46:05.565Z,4.87
2022-10-23T02:47:25.670Z,4.90
2022-10-23T02:48:39.236Z,4.83
2022-10-23T02:49:44.579Z,5.10
2022-10-23T02:51:33.323Z,5.23
2022-10-23T02:52:49.573Z,4.90
2022-10-23T02:54:22.729Z,4.63
2022-10-23T02:55:39.318Z,5.17
2022-10-23T02:56:50.954Z,4.50
2022-10-23T02:58:00.844Z,4.90
2022-10-23T02:59:31.963Z,4.72
2022-10-23T03:00:37.413Z,4.80
2022-10-23T03:01:45.977Z,5.18
2022-10-23T03:03:02.165Z,5.03
2022-10-23T03:04:06.609Z,4.63
2022-10-23T03:05:12.196Z,4.68
2022-10-23T03:06:14.063Z,5.10
2022-10-23T03:07:19.365Z,4.57
2022-10-23T03:08:21.155Z,5.20
2022-10-23T03:09:23.126Z,4.73
2022-10-23T03:10:25.417Z,4.73
2022-10-23T03:11:27.190Z,4.63
2022-10-23T03:12:28.870Z,4.75
2022-10-23T03:13:30.606Z,4.63
2022-10-23T03:14:32.369Z,5.60
2022-10-23T03:15:34.101Z,4.60
2022-10-23T03:16:35.791Z,4.65
2022-10-23T03:17:37.535Z,4.30
2022-10-23T03:18:39.385Z,4.95
2022-10-23T03:19:41.180Z,4.50
2022-10-23T03:20:42.871Z,4.68
2022-10-23T03:21:44.641Z,4.90
2022-10-23T03:22:46.506Z,5.00
2022-10-23T03:23:48.369Z,4.97
2022-10-23T03:24:50.108Z,4.80
2022-10-23T03:25:53.442Z,5.05
2022-10-23T03:26:55.128Z,4.45
2022-10-23T03:27:56.815Z,4.30
2022-10-23T03:28:58.503Z,4.40
2022-10-23T03:30:00.279Z,4.87
2022-10-23T03:31:02.713Z,4.90
2022-10-23T03:32:04.907Z,4.70
2022-10-23T03:33:06.586Z,4.53
2022-10-23T03:34:11.210Z,4.53
2022-10-23T03:35:12.986Z,4.10
2022-10-23T03:36:14.727Z,4.72
2022-10-23T03:37:16.437Z,4.53
2022-10-23T03:38:18.260Z,4.80
2022-10-23T03:39:20.042Z,4.93
2022-10-23T03:40:21.876Z,4.72
2022-10-23T03:41:23.722Z,4.70
2022-10-23T03:42:25.478Z,4.10
2022-10-23T03:43:27.164Z,4.70
2022-10-23T03:44:31.113Z,4.75
2022-10-23T03:45:32.860Z,4.40
2022-10-23T03:46:34.602Z,5.30
2022-10-23T03:47:41.114Z,4.30
2022-10-23T03:48:43.314Z,4.60
2022-10-23T03:49:45.004Z,4.88
2022-10-23T03:50:46.716Z,4.68
2022-10-23T03:51:52.639Z,5.47
2022-10-23T03:52:54.324Z,4.97
2022-10-23T03:53:56.010Z,5.35
2022-10-23T03:54:57.685Z,4.68
2022-10-23T03:55:59.518Z,4.85
2022-10-23T03:57:02.206Z,5.07
2022-10-23T03:58:03.902Z,5.27
2022-10-23T03:59:05.624Z,5.20
2022-10-23T04:00:08.154Z,4.97
2022-10-23T04:01:10.245Z,5.20
2022-10-23T04:02:12.303Z,5.10
2022-10-23T04:03:14.034Z,5.40
2022-10-23T04:04:15.874Z,5.07
2022-10-23T04:05:17.747Z,5.03
2022-10-23T04:06:19.483Z,5.17
2022-10-23T04:07:21.457Z,5.80
2022-10-23T04:08:23.171Z,5.30
2022-10-23T04:09:24.867Z,5.10
2022-10-23T04:10:26.598Z,5.30
2022-10-23T04:11:28.297Z,5.20
2022-10-23T04:12:30.004Z,5.03
2022-10-23T04:13:31.791Z,5.17
2022-10-23T04:14:33.495Z,5.00
2022-10-23T04:15:35.265Z,5.38
2022-10-23T04:16:36.950Z,4.63
2022-10-23T04:17:38.653Z,4.80
2022-10-23T04:18:41.595Z,4.72
2022-10-23T04:19:43.299Z,4.73
2022-10-23T04:20:49.014Z,4.70
2022-10-23T04:21:50.835Z,4.40
2022-10-23T04:22:52.500Z,5.40
2022-10-23T04:23:54.168Z,4.73
2022-10-23T04:24:56.832Z,4.53
2022-10-23T04:25:58.872Z,4.83
2022-10-23T04:27:00.597Z,4.53
2022-10-23T04:28:02.280Z,5.10
2022-10-23T04:29:03.982Z,4.75
2022-10-23T04:30:06.376Z,5.07
2022-10-23T04:31:08.117Z,4.63
2022-10-23T04:32:09.948Z,4.50
2022-10-23T04:33:11.684Z,4.47
2022-10-23T04:34:13.373Z,5.03
2022-10-23T04:35:15.095Z,4.60
2022-10-23T04:36:16.875Z,4.75
2022-10-23T04:37:18.762Z,4.43
2022-10-23T04:38:20.627Z,4.50
2022-10-23T04:39:22.296Z,4.50
2022-10-23T04:40:24.076Z,4.65
2022-10-23T04:41:25.815Z,4.55
2022-10-23T04:43:34.172Z,4.40
2022-10-23T04:44:35.918Z,5.07
2022-10-23T04:45:37.819Z,5.07
2022-10-23T04:46:39.524Z,4.70
2022-10-23T04:47:41.217Z,4.97
2022-10-23T04:48:42.935Z,5.45
2022-10-23T04:49:44.737Z,5.10
2022-10-23T04:50:56.484Z,5.50
2022-10-23T04:51:58.241Z,5.50
2022-10-23T04:53:00.053Z,4.80
2022-10-23T04:54:01.776Z,5.35
2022-10-23T04:55:04.063Z,5.00
2022-10-23T04:56:06.401Z,4.90
2022-10-23T04:57:08.152Z,5.50
2022-10-23T04:58:09.928Z,4.75
2022-10-23T04:59:11.645Z,4.82
2022-10-23T05:00:14.892Z,4.38
2022-10-23T05:01:16.892Z,5.40
2022-10-23T05:02:18.676Z,4.60
2022-10-23T05:03:21.572Z,4.47
2022-10-23T05:04:23.301Z,4.80
2022-10-23T05:05:25.075Z,4.93
2022-10-23T05:06:26.913Z,4.32
2022-10-23T05:07:28.641Z,4.40
2022-10-23T05:08:30.705Z,4.40
2022-10-23T05:09:32.483Z,4.65
2022-10-23T05:10:34.395Z,4.00
2022-10-23T05:11:36.286Z,4.57
2022-10-23T05:12:37.941Z,4.13
2022-10-23T05:13:39.644Z,4.40
2022-10-23T05:14:41.535Z,4.90
2022-10-23T05:17:16.347Z,4.40
2022-10-23T05:18:30.277Z,3.78
2022-10-23T05:19:37.666Z,4.17
2022-10-23T05:20:40.431Z,4.18
2022-10-23T05:21:42.239Z,4.15
2022-10-23T05:22:46.021Z,3.90
2022-10-23T05:23:48.087Z,4.13
2022-10-23T05:24:50.747Z,4.20
2022-10-23T05:25:52.887Z,4.47
2022-10-23T05:26:54.577Z,4.00
2022-10-23T05:27:56.252Z,4.10
2022-10-23T05:28:57.995Z,4.10
2022-10-23T05:29:59.782Z,3.92
2022-10-23T05:31:04.065Z,4.20
2022-10-23T05:32:08.707Z,4.20
2022-10-23T05:33:11.591Z,4.15
2022-10-23T05:34:16.970Z,3.92
2022-10-23T05:35:22.182Z,3.72
2022-10-23T05:36:25.657Z,4.05
2022-10-23T05:37:28.105Z,3.80
2022-10-23T05:38:33.654Z,4.63
2022-10-23T05:39:35.919Z,3.80
2022-10-23T05:40:40.600Z,3.93
2022-10-23T05:41:42.360Z,3.90
2022-10-23T05:42:44.535Z,3.88
2022-10-23T05:43:46.435Z,3.88
2022-10-23T05:44:48.164Z,4.15
2022-10-23T05:45:49.895Z,4.20
2022-10-23T05:46:51.704Z,4.68
2022-10-23T05:47:53.907Z,3.87
2022-10-23T05:48:56.666Z,3.72
2022-10-23T05:49:58.369Z,4.25
2022-10-23T05:51:07.799Z,4.15
2022-10-23T05:52:12.031Z,4.03
2022-10-23T05:53:13.846Z,5.57
2022-10-23T05:54:15.602Z,12.68
2022-10-23T05:55:17.619Z,17.83
2022-10-23T05:56:19.448Z,4.23
2022-10-23T05:57:21.179Z,6.13
2022-10-23T05:58:23.545Z,4.43
2022-10-23T05:59:25.267Z,4.38
2022-10-23T06:00:27.019Z,4.33
2022-10-23T06:01:28.862Z,4.40
2022-10-23T06:02:30.734Z,4.57
2022-10-23T06:03:32.499Z,4.20
2022-10-23T06:04:35.707Z,4.22
2022-10-23T06:05:37.444Z,4.70
2022-10-23T06:06:39.108Z,3.97
2022-10-23T06:07:41.023Z,4.13
2022-10-23T06:08:42.983Z,4.50
2022-10-23T06:09:44.686Z,4.85
2022-10-23T06:10:46.511Z,4.80
2022-10-23T06:11:48.181Z,3.87
2022-10-23T06:12:50.909Z,4.07
2022-10-23T06:13:52.634Z,3.90
2022-10-23T06:14:54.455Z,4.10
2022-10-23T06:15:56.149Z,4.00
2022-10-23T06:16:57.851Z,3.73
2022-10-23T06:18:04.182Z,4.55
2022-10-23T06:19:05.851Z,4.60
2022-10-23T06:20:08.332Z,4.50
2022-10-23T06:21:10.690Z,4.03
2022-10-23T06:22:12.494Z,4.30
2022-10-23T06:23:14.254Z,4.30
2022-10-23T06:24:16.004Z,4.03
2022-10-23T06:25:17.798Z,3.92
2022-10-23T06:26:20.045Z,4.00
2022-10-23T06:27:21.793Z,4.20
2022-10-23T06:28:23.564Z,4.28
2022-10-23T06:29:25.333Z,4.38
2022-10-23T06:30:27.121Z,4.15
2022-10-23T06:31:29.283Z,4.28
2022-10-23T06:32:34.021Z,4.30
2022-10-23T06:33:36.154Z,4.43
2022-10-23T06:34:37.830Z,4.18
2022-10-23T06:35:39.533Z,4.32
2022-10-23T06:36:41.358Z,4.20
2022-10-23T06:37:43.232Z,4.45
2022-10-23T06:38:45.003Z,4.07
2022-10-23T06:39:46.688Z,4.45
2022-10-23T06:40:53.947Z,4.50
2022-10-23T06:41:55.690Z,4.30
2022-10-23T06:42:57.556Z,4.13
2022-10-23T06:43:59.270Z,4.30
2022-10-23T06:45:04.708Z,4.53
2022-10-23T06:46:09.974Z,5.10
2022-10-23T06:47:13.133Z,4.60
2022-10-23T06:48:15.638Z,4.97
2022-10-23T06:49:17.925Z,4.40
2022-10-23T06:50:19.608Z,4.37
2022-10-23T06:51:22.403Z,4.90
2022-10-23T06:52:45.395Z,4.78
2022-10-23T06:53:46.184Z,5.75
2022-10-23T06:54:47.915Z,5.03
2022-10-23T06:55:52.880Z,4.97
2022-10-23T06:56:57.133Z,4.97
2022-10-23T06:57:59.417Z,4.80
2022-10-23T06:59:01.517Z,5.47
2022-10-23T07:00:05.179Z,5.60
2022-10-23T07:01:11.136Z,4.82
2022-10-23T07:02:12.956Z,5.97
2022-10-23T07:03:14.680Z,6.00
2022-10-23T07:04:16.441Z,6.50
2022-10-23T07:05:19.348Z,5.68
2022-10-23T07:06:21.040Z,6.57
2022-10-23T07:07:22.798Z,6.20
2022-10-23T07:08:24.542Z,6.60
2022-10-23T07:09:26.247Z,6.40
2022-10-23T07:10:27.946Z,5.97
2022-10-23T07:11:29.672Z,6.53
2022-10-23T07:12:31.354Z,6.38
2022-10-23T07:13:34.766Z,6.15
2022-10-23T07:14:36.492Z,6.57
2022-10-23T07:15:39.021Z,6.22
2022-10-23T07:16:40.711Z,5.93
2022-10-23T07:17:42.362Z,6.45
2022-10-23T07:18:44.911Z,6.20
2022-10-23T07:19:47.807Z,6.35
2022-10-23T07:20:51.154Z,6.03
2022-10-23T07:21:53.014Z,5.72
2022-10-23T07:22:55.877Z,6.22
2022-10-23T07:23:58.118Z,5.95
2022-10-23T07:24:59.820Z,7.40
2022-10-23T07:26:19.939Z,6.45
2022-10-23T07:27:21.609Z,5.97
2022-10-23T07:28:23.326Z,5.90
2022-10-23T07:29:25.089Z,6.30
2022-10-23T07:30:26.858Z,6.70
2022-10-23T07:31:29.127Z,6.50
2022-10-23T07:32:30.844Z,6.60
2022-10-23T07:33:32.500Z,6.35
2022-10-23T07:34:36.780Z,6.20
2022-10-23T07:35:41.603Z,6.97
2022-10-23T07:36:43.426Z,6.43
2022-10-23T07:37:45.500Z,6.60
2022-10-23T07:38:47.508Z,6.32
2022-10-23T07:39:49.208Z,6.57
2022-10-23T07:40:51.207Z,6.65
2022-10-23T07:41:52.983Z,5.90
2022-10-23T07:42:54.674Z,6.30
2022-10-23T07:43:56.399Z,6.07
2022-10-23T07:44:58.084Z,5.70
2022-10-23T07:45:59.893Z,5.75
2022-10-23T07:47:01.652Z,5.18
2022-10-23T07:48:03.676Z,5.65
2022-10-23T07:49:05.547Z,5.80
2022-10-23T07:50:07.919Z,5.75
2022-10-23T07:51:13.801Z,5.35
2022-10-23T07:52:15.686Z,5.68
2022-10-23T07:53:19.865Z,5.28
2022-10-23T07:54:21.591Z,5.38
2022-10-23T07:55:23.294Z,5.45
2022-10-23T07:56:29.782Z,5.35
2022-10-23T07:57:31.543Z,5.80
2022-10-23T07:58:33.232Z,5.43
2022-10-23T07:59:37.906Z,5.00
2022-10-23T08:00:41.380Z,5.07
2022-10-23T08:01:43.738Z,5.13
2022-10-23T08:02:45.650Z,5.55
2022-10-23T08:03:47.564Z,5.28
2022-10-23T08:04:50.415Z,5.32
2022-10-23T08:05:53.830Z,5.30
2022-10-23T08:06:56.326Z,5.20
2022-10-23T08:07:58.083Z,5.50
2022-10-23T08:09:02.214Z,5.45
2022-10-23T08:10:07.618Z,5.65
2022-10-23T08:11:12.463Z,5.90
2022-10-23T08:12:14.219Z,5.35
2022-10-23T08:13:16.285Z,5.32
2022-10-23T08:14:17.990Z,5.75
2022-10-23T08:15:19.700Z,5.25
2022-10-23T08:16:22.228Z,5.50
2022-10-23T08:17:26.270Z,5.75
2022-10-23T08:18:29.950Z,5.43
2022-10-23T08:19:31.705Z,5.88
2022-10-23T08:20:37.548Z,5.13
2022-10-23T08:21:39.261Z,5.55
2022-10-23T08:22:41.100Z,5.07
2022-10-23T08:23:43.904Z,4.78
2022-10-23T08:24:45.614Z,5.13
2022-10-23T08:25:47.619Z,4.13
2022-10-23T08:26:50.312Z,4.30
2022-10-23T08:27:52.240Z,4.53
2022-10-23T08:28:54.007Z,4.30
2022-10-23T08:29:55.700Z,4.07
2022-10-23T08:30:57.522Z,4.40
2022-10-23T08:31:59.281Z,4.68
2022-10-23T08:33:03.778Z,4.25
2022-10-23T08:34:05.498Z,4.85
2022-10-23T08:35:07.422Z,4.18
2022-10-23T08:36:21.943Z,4.40
2022-10-23T08:37:24.003Z,4.10
2022-10-23T08:38:25.727Z,5.05
2022-10-23T08:39:27.429Z,5.40
2022-10-23T08:40:29.121Z,4.45
2022-10-23T08:41:37.326Z,3.55
2022-10-23T08:42:40.577Z,4.03
2022-10-23T08:43:47.294Z,3.47
2022-10-23T08:45:25.735Z,3.80
2022-10-23T08:46:31.951Z,3.75
2022-10-23T08:47:44.236Z,4.18
2022-10-23T08:49:08.239Z,4.00
2022-10-23T08:50:27.286Z,4.00
2022-10-23T08:51:40.205Z,4.13
2022-10-23T08:53:08.340Z,4.65
2022-10-23T08:54:24.364Z,3.75
2022-10-23T08:55:38.423Z,4.00
2022-10-23T08:56:44.317Z,3.92
2022-10-23T08:57:57.575Z,4.35
2022-10-23T08:59:08.012Z,4.30
2022-10-23T09:00:15.864Z,3.97
2022-10-23T09:01:36.339Z,3.63
2022-10-23T09:02:44.913Z,3.70
2022-10-23T09:03:46.816Z,3.50
2022-10-23T09:04:51.929Z,3.45
2022-10-23T09:05:59.869Z,3.60
2022-10-23T09:07:16.019Z,3.75
2022-10-23T09:08:42.747Z,5.95
2022-10-23T09:09:59.549Z,4.05
2022-10-23T09:11:32.902Z,3.45
2022-10-23T09:12:34.636Z,3.00
2022-10-23T09:13:50.344Z,3.35
2022-10-23T09:15:24.781Z,3.00
2022-10-23T09:16:49.335Z,3.33
2022-10-23T09:18:06.630Z,3.35
2022-10-23T09:19:16.406Z,2.70
2022-10-23T09:20:34.312Z,3.13
2022-10-23T09:21:36.307Z,3.28
2022-10-23T09:22:38.724Z,3.22
2022-10-23T09:23:40.469Z,3.38
2022-10-23T09:24:43.597Z,3.08
2022-10-23T09:25:47.091Z,2.90
2022-10-23T09:26:51.742Z,2.95
2022-10-23T09:27:57.431Z,2.92
2022-10-23T09:29:24.022Z,3.00
2022-10-23T09:30:38.829Z,2.85
2022-10-23T09:31:51.388Z,3.25
2022-10-23T09:32:53.156Z,2.88
2022-10-23T09:34:01.990Z,3.40
2022-10-23T09:35:05.270Z,3.05
2022-10-23T09:36:18.091Z,2.80
2022-10-23T09:37:28.862Z,3.03
2022-10-23T09:38:35.075Z,2.67
2022-10-23T09:39:37.257Z,2.88
2022-10-23T09:40:42.854Z,3.05
2022-10-23T09:41:45.755Z,2.80
2022-10-23T09:42:56.583Z,2.70
2022-10-23T09:44:02.142Z,3.00
2022-10-23T09:45:20.367Z,3.03
2022-10-23T09:46:22.099Z,2.67
2022-10-23T09:47:25.630Z,3.08
2022-10-23T09:48:27.698Z,2.67
2022-10-23T09:49:31.699Z,2.30
2022-10-23T09:50:33.451Z,2.85
2022-10-23T09:51:35.210Z,2.42
2022-10-23T09:52:38.896Z,2.35
2022-10-23T09:53:59.025Z,2.60
2022-10-23T09:55:03.430Z,2.60
2022-10-23T09:56:12.022Z,2.80
2022-10-23T09:57:27.577Z,2.50
2022-10-23T09:58:38.682Z,2.40
2022-10-23T09:59:41.853Z,2.60
2022-10-23T10:00:50.064Z,2.47
2022-10-23T10:01:55.824Z,2.53
2022-10-23T10:03:19.236Z,2.42
2022-10-23T10:04:32.306Z,2.15
2022-10-23T10:05:35.642Z,2.20
2022-10-23T10:06:37.605Z,2.40
2022-10-23T10:07:39.632Z,2.53
2022-10-23T10:08:46.710Z,2.33
2022-10-23T10:09:48.814Z,2.15
2022-10-23T10:10:57.017Z,1.90
2022-10-23T10:12:23.248Z,2.17
2022-10-23T10:13:34.111Z,1.85
2022-10-23T10:14:44.735Z,2.10
2022-10-23T10:15:56.871Z,2.28
2022-10-23T10:17:06.576Z,1.88
2022-10-23T10:18:17.590Z,2.10
2022-10-23T10:19:31.009Z,2.25
2022-10-23T10:21:01.848Z,2.10
2022-10-23T10:22:19.144Z,2.25
2022-10-23T10:23:45.208Z,1.90
2022-10-23T10:24:58.478Z,2.03
2022-10-23T10:26:02.997Z,2.30
2022-10-23T10:27:19.663Z,1.85
2022-10-23T10:29:02.507Z,1.88
2022-10-23T10:30:24.455Z,2.03
2022-10-23T10:31:59.423Z,2.03
2022-10-23T10:33:32.491Z,1.73
2022-10-23T10:34:41.907Z,2.00
2022-10-23T10:35:51.328Z,2.20
2022-10-23T10:36:56.008Z,2.45
2022-10-23T10:38:19.489Z,2.00
2022-10-23T10:39:21.637Z,2.10
2022-10-23T10:40:41.438Z,2.35
2022-10-23T10:42:24.272Z,2.17
2022-10-23T10:43:43.249Z,1.83
2022-10-23T10:45:04.437Z,2.03
2022-10-23T10:47:33.368Z,1.85
2022-10-23T10:48:35.002Z,1.70
2022-10-23T10:49:43.025Z,2.00
2022-10-23T10:50:57.694Z,1.83
2022-10-23T10:52:02.281Z,1.67
2022-10-23T10:53:22.620Z,2.03
2022-10-23T10:54:48.202Z,1.88
2022-10-23T10:55:53.563Z,1.52
2022-10-23T10:56:58.350Z,1.92
2022-10-23T10:58:05.564Z,1.73
2022-10-23T10:59:26.907Z,1.70
2022-10-23T11:00:31.425Z,1.60
2022-10-23T11:01:45.214Z,1.70
2022-10-23T11:02:52.032Z,2.15
2022-10-23T11:04:08.806Z,1.75
2022-10-23T11:05:32.087Z,1.48
2022-10-23T11:06:37.161Z,1.35
2022-10-23T11:07:43.325Z,1.70
2022-10-23T11:08:57.455Z,1.92
2022-10-23T11:10:04.118Z,1.67
2022-10-23T11:11:13.454Z,1.83
2022-10-23T11:12:21.689Z,1.55
2022-10-23T11:13:40.690Z,1.63
2022-10-23T11:14:43.077Z,1.58
2022-10-23T11:15:45.281Z,1.65
2022-10-23T11:16:51.076Z,1.70
2022-10-23T11:18:00.702Z,2.20
2022-10-23T11:19:14.051Z,1.83
2022-10-23T11:20:47.938Z,2.05
2022-10-23T11:22:32.122Z,1.55
2022-10-23T11:24:02.199Z,1.80
2022-10-23T11:25:37.837Z,1.80
2022-10-23T11:26:57.733Z,1.33
2022-10-23T11:28:15.947Z,1.67
2022-10-23T11:29:40.818Z,1.52
2022-10-23T11:31:39.884Z,1.67
2022-10-23T11:33:02.415Z,1.45
2022-10-23T11:34:12.639Z,1.48
2022-10-23T11:35:42.655Z,1.40
2022-10-23T11:36:47.109Z,1.40
2022-10-23T11:38:07.692Z,1.80
2022-10-23T11:39:39.605Z,1.30
2022-10-23T11:41:58.885Z,1.90
2022-10-23T11:43:00.641Z,1.70
2022-10-23T11:44:05.072Z,1.50
2022-10-23T11:45:33.487Z,1.58
2022-10-23T11:46:38.016Z,1.63
2022-10-23T11:47:43.044Z,1.70
2022-10-23T11:48:45.013Z,1.48
2022-10-23T11:49:46.702Z,1.95
2022-10-23T11:50:48.580Z,1.90
2022-10-23T11:52:01.248Z,1.67
2022-10-23T11:53:23.261Z,1.60
2022-10-23T11:54:27.192Z,1.95
2022-10-23T11:55:30.745Z,1.90
2022-10-23T11:56:34.185Z,2.53
2022-10-23T11:57:36.295Z,2.67
2022-10-23T11:58:46.772Z,2.22
2022-10-23T11:59:48.427Z,1.75
2022-10-23T12:01:04.014Z,1.90
2022-10-23T12:02:31.814Z,1.73
2022-10-23T12:04:07.464Z,1.98
2022-10-23T12:05:41.664Z,1.80
2022-10-23T12:06:52.150Z,1.73
2022-10-23T12:07:57.987Z,1.50
2022-10-23T12:09:03.310Z,1.60
2022-10-23T12:10:07.488Z,2.05
2022-10-23T12:11:49.208Z,2.00
2022-10-23T12:13:04.227Z,2.00
2022-10-23T12:15:22.440Z,1.70
2022-10-23T12:16:35.436Z,1.90
2022-10-23T12:17:39.995Z,1.75
2022-10-23T12:18:52.985Z,1.88
2022-10-23T12:20:13.207Z,2.80
2022-10-23T12:21:22.916Z,1.90
2022-10-23T12:22:32.095Z,2.28
2022-10-23T12:23:48.167Z,1.95
2022-10-23T12:25:15.280Z,1.90
2022-10-23T12:26:16.993Z,1.55
2022-10-23T12:27:44.945Z,2.13
2022-10-23T12:29:21.010Z,1.98
2022-10-23T12:30:24.714Z,1.58
2022-10-23T12:32:04.166Z,1.55
2022-10-23T12:33:19.811Z,1.77
2022-10-23T12:34:39.655Z,2.38
2022-10-23T12:35:48.875Z,2.00
2022-10-23T12:37:12.597Z,1.80
2022-10-23T12:38:19.010Z,1.80
2022-10-23T12:39:31.869Z,1.50
2022-10-23T12:40:33.691Z,1.85
2022-10-23T12:41:39.202Z,2.00
2022-10-23T12:42:49.844Z,1.90
2022-10-23T12:43:55.959Z,1.92
2022-10-23T12:44:59.783Z,1.73
2022-10-23T12:46:08.028Z,1.83
2022-10-23T12:47:18.688Z,2.05
2022-10-23T12:48:22.711Z,1.80
2022-10-23T12:49:26.435Z,1.75
2022-10-23T12:50:31.157Z,1.90
2022-10-23T12:51:35.225Z,1.80
2022-10-23T12:52:39.637Z,1.85
2022-10-23T12:53:41.443Z,1.33
2022-10-23T12:54:43.116Z,1.83
2022-10-23T12:55:57.277Z,1.45
2022-10-23T12:56:59.545Z,1.45
2022-10-23T12:58:01.605Z,1.45
2022-10-23T12:59:05.318Z,1.80
2022-10-23T13:00:10.731Z,1.80
2022-10-23T13:01:27.110Z,1.38
2022-10-23T13:02:31.359Z,1.70
2022-10-23T13:03:34.806Z,1.63
2022-10-23T13:04:38.079Z,1.90
2022-10-23T13:05:39.879Z,1.80
2022-10-23T13:06:41.854Z,1.92
2022-10-23T13:07:47.093Z,2.00
2022-10-23T13:08:49.487Z,2.85
2022-10-23T13:09:51.876Z,2.25
2022-10-23T13:10:53.607Z,2.03
2022-10-23T13:11:56.631Z,1.90
2022-10-23T13:13:07.079Z,1.75
2022-10-23T13:14:13.242Z,2.00
2022-10-23T13:15:18.481Z,1.83
2022-10-23T13:16:23.009Z,2.00
2022-10-23T13:17:41.796Z,2.25
2022-10-23T13:18:44.097Z,2.00
2022-10-23T13:19:45.940Z,1.73
2022-10-23T13:20:53.782Z,2.22
2022-10-23T13:21:55.802Z,2.20
2022-10-23T13:23:01.347Z,1.98
2022-10-23T13:24:03.139Z,1.98
2022-10-23T13:25:28.074Z,2.00
2022-10-23T13:26:45.073Z,1.52
2022-10-23T13:27:47.257Z,2.17
2022-10-23T13:28:49.353Z,1.98
2022-10-23T13:29:51.097Z,1.80
2022-10-23T13:31:12.662Z,2.22
2022-10-23T13:32:25.205Z,1.85
2022-10-23T13:33:32.044Z,1.77
2022-10-23T13:34:33.743Z,2.03
2022-10-23T13:35:37.293Z,1.90
2022-10-23T13:36:53.571Z,2.28
2022-10-23T13:37:55.582Z,2.17
2022-10-23T13:39:12.610Z,1.95
2022-10-23T13:40:27.289Z,2.10
2022-10-23T13:41:36.024Z,1.92
2022-10-23T13:42:37.731Z,2.13
2022-10-23T13:43:40.229Z,2.20
2022-10-23T13:44:42.742Z,1.85
2022-10-23T13:45:44.430Z,2.15
2022-10-23T13:46:46.150Z,2.00
2022-10-23T13:47:47.835Z,2.00
2022-10-23T13:48:49.550Z,1.98
2022-10-23T13:49:51.266Z,2.15
2022-10-23T13:50:53.636Z,2.10
2022-10-23T13:51:56.608Z,2.00
2022-10-23T13:52:58.382Z,1.92
2022-10-23T13:54:03.944Z,2.50
2022-10-23T13:55:19.495Z,2.10
2022-10-23T13:56:23.486Z,2.15
2022-10-23T13:57:25.878Z,1.67
2022-10-23T13:58:27.602Z,2.92
2022-10-23T13:59:29.303Z,2.70
2022-10-23T14:00:31.003Z,2.15
2022-10-23T14:01:35.909Z,1.85
2022-10-23T14:02:37.844Z,2.22
2022-10-23T14:03:39.591Z,2.47
2022-10-23T14:04:41.259Z,2.25
2022-10-23T14:05:43.128Z,1.83
2022-10-23T14:06:44.891Z,2.10
2022-10-23T14:07:46.890Z,2.58
2022-10-23T14:08:49.230Z,2.60
2022-10-23T14:09:51.807Z,2.75
2022-10-23T14:10:53.903Z,2.10
2022-10-23T14:11:55.760Z,1.98
2022-10-23T14:12:57.662Z,2.20
2022-10-23T14:14:00.464Z,2.20
2022-10-23T14:15:02.425Z,2.00
2022-10-23T14:16:04.530Z,2.05
2022-10-23T14:17:06.242Z,2.42
2022-10-23T14:18:08.483Z,2.10
2022-10-23T14:19:11.106Z,1.90
2022-10-23T14:20:13.027Z,2.35
2022-10-23T14:21:16.969Z,2.10
2022-10-23T14:22:18.940Z,2.22
2022-10-23T14:23:20.713Z,2.40
2022-10-23T14:24:22.495Z,2.30
2022-10-23T14:25:24.204Z,2.30
2022-10-23T14:26:28.926Z,2.20
2022-10-23T14:27:30.689Z,2.40
2022-10-23T14:28:32.912Z,1.88
2022-10-23T14:29:34.686Z,2.22
2022-10-23T14:30:38.682Z,2.22
2022-10-23T14:31:40.498Z,2.53
2022-10-23T14:32:42.629Z,2.30
2022-10-23T14:33:46.136Z,1.95
2022-10-23T14:34:52.601Z,2.10
2022-10-23T14:35:54.444Z,2.42
2022-10-23T14:37:08.575Z,2.15
2022-10-23T14:38:10.998Z,2.72
2022-10-23T14:39:12.715Z,2.22
2022-10-23T14:40:14.594Z,1.98
2022-10-23T14:41:17.876Z,2.97
2022-10-23T14:42:19.757Z,2.13
2022-10-23T14:43:22.190Z,2.30
2022-10-23T14:44:24.080Z,2.08
2022-10-23T14:45:25.889Z,2.55
2022-10-23T14:46:27.977Z,2.88
2022-10-23T14:47:31.428Z,2.28
2022-10-23T14:48:33.146Z,2.28
2022-10-23T14:49:35.641Z,2.60
2022-10-23T14:50:42.706Z,2.15
2022-10-23T14:51:44.513Z,2.60
2022-10-23T14:52:46.478Z,2.42
2022-10-23T14:53:49.089Z,2.28
2022-10-23T14:54:54.358Z,3.35
2022-10-23T14:56:02.161Z,3.08
2022-10-23T14:57:04.237Z,2.88
2022-10-23T14:58:06.664Z,2.90